Terminal Aerodrome Forecast
Issued by NWS La Crosse, WI

Home | Current Version | Previous Version | Text Only | Print | Product List | Glossary On
Versions: 1 2 3 4 5 6 7 8 9 10 11 12 13 14 15 16 17 18 19 20 21 22 23 24 25 26 27 28 29 30 31 32
000
FTUS43 KARX 221402 AAB
TAFRST
TAF AMD
KRST 221402Z 2214/2312 30013KT P6SM SKC
     FM221500 32014G20KT P6SM BKN150
     FM221900 34012G18KT P6SM SCT150
     FM230100 36009KT P6SM SKC
     FM230600 36005KT P6SM SKC=

USA.gov is the U.S. government's official web portal to all federal, state and local government web resources and services.